createdAt,value
2022-08-02T00:00:02.747Z,99634.44
2022-08-02T00:00:16.288Z,99634.44
2022-08-02T00:00:28.240Z,99645.06
2022-08-02T00:00:40.337Z,99634.44
2022-08-02T00:00:55.547Z,99643.41
2022-08-02T00:01:08.017Z,99636.41
2022-08-02T00:01:20.183Z,99640.16
2022-08-02T00:01:32.382Z,99639.59
2022-08-02T00:01:44.596Z,99642.22
2022-08-02T00:01:56.629Z,99637.19
2022-08-02T00:02:08.936Z,99633.81
2022-08-02T00:02:21.202Z,99637.47
2022-08-02T00:02:33.204Z,99637.34
2022-08-02T00:02:46.394Z,99632.75
2022-08-02T00:02:58.350Z,99635.50
2022-08-02T00:03:10.377Z,99637.34
2022-08-02T00:03:24.541Z,99639.84
2022-08-02T00:03:36.715Z,99644.19
2022-08-02T00:03:48.671Z,99631.75
2022-08-02T00:04:00.754Z,99640.53
2022-08-02T00:04:12.752Z,99631.63
2022-08-02T00:04:24.662Z,99631.63
2022-08-02T00:04:36.598Z,99635.97
2022-08-02T00:04:48.523Z,99635.81
2022-08-02T00:05:00.454Z,99636.69
2022-08-02T00:05:13.801Z,99638.34
2022-08-02T00:05:25.821Z,99636.69
2022-08-02T00:05:37.980Z,99636.69
2022-08-02T00:05:53.549Z,99631.22
2022-08-02T00:06:06.039Z,99633.03
2022-08-02T00:06:18.313Z,99630.25
2022-08-02T00:06:30.453Z,99630.25
2022-08-02T00:06:42.818Z,99628.31
2022-08-02T00:06:54.785Z,99630.13
2022-08-02T00:07:06.779Z,99634.44
2022-08-02T00:07:19.509Z,99627.19
2022-08-02T00:07:31.435Z,99627.19
2022-08-02T00:07:43.405Z,99631.66
2022-08-02T00:07:55.355Z,99629.84
2022-08-02T00:08:07.587Z,99622.00
2022-08-02T00:08:19.592Z,99629.97
2022-08-02T00:08:31.609Z,99629.16
2022-08-02T00:08:43.660Z,99630.84
2022-08-02T00:08:55.718Z,99632.78
2022-08-02T00:09:07.747Z,99631.91
2022-08-02T00:09:19.750Z,99624.97
2022-08-02T00:09:33.366Z,99624.13
2022-08-02T00:09:45.352Z,99625.09
2022-08-02T00:09:57.347Z,99632.06
2022-08-02T00:10:11.811Z,99630.38
2022-08-02T00:10:23.763Z,99625.91
2022-08-02T00:10:35.721Z,99623.25
2022-08-02T00:10:47.900Z,99624.13
2022-08-02T00:10:59.867Z,99631.09
2022-08-02T00:11:11.851Z,99629.44
2022-08-02T00:11:23.803Z,99634.03
2022-08-02T00:11:35.742Z,99624.38
2022-08-02T00:11:47.735Z,99623.53
2022-08-02T00:11:59.747Z,99631.38
2022-08-02T00:12:12.051Z,99627.03
2022-08-02T00:12:24.416Z,99628.97
2022-08-02T00:12:36.841Z,99628.97
2022-08-02T00:12:48.921Z,99627.16
2022-08-02T00:13:00.900Z,99629.94
2022-08-02T00:13:12.842Z,99629.94
2022-08-02T00:13:27.618Z,99635.38
2022-08-02T00:13:39.580Z,99630.22
2022-08-02T00:13:51.814Z,99633.56
2022-08-02T00:14:04.418Z,99629.09
2022-08-02T00:14:16.333Z,99627.16
2022-08-02T00:14:28.410Z,99633.16
2022-08-02T00:14:40.387Z,99627.72
2022-08-02T00:14:52.452Z,99632.06
2022-08-02T00:15:06.156Z,99627.72
2022-08-02T00:15:18.141Z,99627.72
2022-08-02T00:15:30.143Z,99632.91
2022-08-02T00:15:42.080Z,99638.34
2022-08-02T00:15:54.026Z,99634.97
2022-08-02T00:16:05.961Z,99633.31
2022-08-02T00:16:18.108Z,99629.69
2022-08-02T00:16:38.020Z,99636.94
2022-08-02T00:16:50.729Z,99636.22
2022-08-02T00:17:02.725Z,99634.53
2022-08-02T00:17:14.671Z,99642.22
2022-08-02T00:17:26.671Z,99636.94
2022-08-02T00:17:38.619Z,99633.31
2022-08-02T00:17:50.634Z,99639.34
2022-08-02T00:18:02.790Z,99640.03
2022-08-02T00:18:14.939Z,99640.03
2022-08-02T00:18:26.882Z,99633.03
2022-08-02T00:18:39.310Z,99631.91
2022-08-02T00:18:53.530Z,99638.09
2022-08-02T00:19:05.794Z,99639.75
2022-08-02T00:19:17.730Z,99638.94
2022-08-02T00:19:29.739Z,99637.22
2022-08-02T00:19:41.709Z,99637.72
2022-08-02T00:19:53.740Z,99642.19
2022-08-02T00:20:06.407Z,99638.69
2022-08-02T00:20:18.362Z,99635.06
2022-08-02T00:20:30.422Z,99638.00
2022-08-02T00:20:42.358Z,99638.56
2022-08-02T00:20:54.298Z,99639.13
2022-08-02T00:21:06.290Z,99638.16
2022-08-02T00:21:18.289Z,99639.72
2022-08-02T00:21:31.311Z,99632.44
2022-08-02T00:21:43.407Z,99640.28
2022-08-02T00:21:55.322Z,99634.16
2022-08-02T00:22:07.336Z,99631.75
2022-08-02T00:22:19.607Z,99636.34
2022-08-02T00:22:31.627Z,99639.41
2022-08-02T00:22:43.856Z,99634.94
2022-08-02T00:22:55.803Z,99632.16
2022-08-02T00:23:07.778Z,99641.06
2022-08-02T00:23:19.770Z,99631.44
2022-08-02T00:23:31.823Z,99633.13
2022-08-02T00:24:27.487Z,99643.72
2022-08-02T00:24:30.141Z,99628.50
2022-08-02T00:24:42.695Z,99628.25
2022-08-02T00:24:54.671Z,99625.63
2022-08-02T00:25:06.872Z,99628.13
2022-08-02T00:25:18.824Z,99627.03
2022-08-02T00:25:30.762Z,99623.53
2022-08-02T00:25:55.405Z,99624.19
2022-08-02T00:26:07.862Z,99622.13
2022-08-02T00:26:19.897Z,99617.41
2022-08-02T00:26:31.846Z,99624.25
2022-08-02T00:26:43.803Z,99624.38
2022-08-02T00:26:55.751Z,99620.75
2022-08-02T00:27:10.443Z,99619.06
2022-08-02T00:27:22.461Z,99622.72
2022-08-02T00:27:34.440Z,99618.22
2022-08-02T00:27:46.381Z,99619.06
2022-08-02T00:27:58.329Z,99625.38
2022-08-02T00:28:11.224Z,99620.06
2022-08-02T00:28:27.123Z,99623.53
2022-08-02T00:28:40.037Z,99615.72
2022-08-02T00:28:52.148Z,99619.06
2022-08-02T00:29:04.502Z,99620.06
2022-08-02T00:29:16.506Z,99617.41
2022-08-02T00:29:28.425Z,99617.41
2022-08-02T00:29:51.976Z,99620.06
2022-08-02T00:30:05.619Z,99617.66
2022-08-02T00:30:17.615Z,99615.97
2022-08-02T00:30:29.609Z,99622.97
2022-08-02T00:30:41.545Z,99621.25
2022-08-02T00:30:53.559Z,99617.91
2022-08-02T00:31:05.496Z,99617.91
2022-08-02T00:31:17.430Z,99619.84
2022-08-02T00:31:30.165Z,99618.91
2022-08-02T00:31:42.118Z,99617.19
2022-08-02T00:31:54.127Z,99623.50
2022-08-02T00:32:06.128Z,99616.50
2022-08-02T00:32:18.250Z,99623.75
2022-08-02T00:32:30.254Z,99622.91
2022-08-02T00:32:42.244Z,99618.72
2022-08-02T00:32:54.224Z,99619.56
2022-08-02T00:33:06.399Z,99618.44
2022-08-02T00:33:18.566Z,99614.81
2022-08-02T00:34:26.473Z,99619.56
2022-08-02T00:34:29.006Z,99624.28
2022-08-02T00:34:43.086Z,99622.59
2022-08-02T00:34:55.072Z,99625.25
2022-08-02T00:35:07.682Z,99618.25
2022-08-02T00:35:19.757Z,99621.78
2022-08-02T00:35:32.588Z,99624.53
2022-08-02T00:35:47.187Z,99631.50
2022-08-02T00:35:59.195Z,99621.91
2022-08-02T00:36:11.295Z,99617.56
2022-08-02T00:36:23.210Z,99621.44
2022-08-02T00:36:35.268Z,99625.06
2022-08-02T00:36:47.191Z,99620.59
2022-08-02T00:36:59.156Z,99632.75
2022-08-02T00:37:11.156Z,99628.44
2022-08-02T00:37:23.129Z,99623.97
2022-08-02T00:37:39.527Z,99628.44
2022-08-02T00:37:51.471Z,99635.56
2022-08-02T00:38:04.277Z,99633.75
2022-08-02T00:38:16.224Z,99630.09
2022-08-02T00:38:28.156Z,99627.44
2022-08-02T00:38:40.200Z,99625.78
2022-08-02T00:38:52.124Z,99626.63
2022-08-02T00:39:04.144Z,99628.31
2022-08-02T00:39:36.650Z,99631.09
2022-08-02T00:39:48.605Z,99636.28
2022-08-02T00:40:02.093Z,99630.09
2022-08-02T00:40:14.172Z,99628.44
2022-08-02T00:40:26.541Z,99632.03
2022-08-02T00:40:38.742Z,99628.44
2022-08-02T00:40:56.474Z,99633.88
2022-08-02T00:41:16.270Z,99633.97
2022-08-02T00:41:28.223Z,99625.31
2022-08-02T00:41:48.416Z,99628.81
2022-08-02T00:42:00.434Z,99623.66
2022-08-02T00:42:15.634Z,99630.91
2022-08-02T00:42:27.570Z,99630.91
2022-08-02T00:42:40.376Z,99634.50
2022-08-02T00:43:07.746Z,99632.84
2022-08-02T00:43:19.891Z,99631.13
2022-08-02T00:43:31.930Z,99625.81
2022-08-02T00:43:45.317Z,99624.16
2022-08-02T00:43:57.529Z,99632.22
2022-08-02T00:44:09.558Z,99635.72
2022-08-02T00:44:24.864Z,99633.34
2022-08-02T00:44:36.932Z,99632.34
2022-08-02T00:44:48.909Z,99635.28
2022-08-02T00:45:58.943Z,99630.50
2022-08-02T00:46:02.173Z,99630.84
2022-08-02T00:46:17.768Z,99629.03
2022-08-02T00:46:29.701Z,99627.84
2022-08-02T00:46:41.804Z,99632.16
2022-08-02T00:46:53.806Z,99632.16
2022-08-02T00:47:05.953Z,99628.56
2022-08-02T00:47:19.245Z,99629.78
2022-08-02T00:47:31.781Z,99634.09
2022-08-02T00:47:43.708Z,99632.69
2022-08-02T00:47:55.680Z,99630.75
2022-08-02T00:48:09.486Z,99627.25
2022-08-02T00:48:21.562Z,99629.03
2022-08-02T00:48:33.535Z,99630.03
2022-08-02T00:48:47.498Z,99633.50
2022-08-02T00:48:59.493Z,99637.97
2022-08-02T00:49:12.833Z,99629.84
2022-08-02T00:49:28.740Z,99635.66
2022-08-02T00:49:40.847Z,99642.28
2022-08-02T00:49:52.863Z,99630.97
2022-08-02T00:50:05.559Z,99636.16
2022-08-02T00:50:17.526Z,99628.91
2022-08-02T00:50:30.058Z,99626.97
2022-08-02T00:50:43.980Z,99632.28
2022-08-02T00:50:57.047Z,99634.22
2022-08-02T00:51:09.054Z,99633.38
2022-08-02T00:51:21.028Z,99633.50
2022-08-02T00:51:33.110Z,99628.91
2022-08-02T00:51:45.077Z,99628.66
2022-08-02T00:51:57.043Z,99632.00
2022-08-02T00:52:09.363Z,99636.34
2022-08-02T00:52:23.731Z,99633.72
2022-08-02T00:52:35.685Z,99631.78
2022-08-02T00:52:47.655Z,99629.00
2022-08-02T00:53:00.120Z,99628.13
2022-08-02T00:53:12.089Z,99629.50
2022-08-02T00:53:24.041Z,99626.88
2022-08-02T00:53:36.020Z,99626.72
2022-08-02T00:53:48.083Z,99631.06
2022-08-02T00:54:00.081Z,99631.19
2022-08-02T00:54:12.800Z,99627.69
2022-08-02T00:54:25.030Z,99635.66
2022-08-02T00:54:37.319Z,99625.03
2022-08-02T00:54:49.378Z,99632.16
2022-08-02T00:55:01.442Z,99631.19
2022-08-02T00:55:13.465Z,99633.94
2022-08-02T00:55:31.057Z,99636.47
2022-08-02T00:55:43.524Z,99630.22
2022-08-02T00:55:55.529Z,99635.53
2022-08-02T00:56:07.538Z,99626.72
2022-08-02T00:56:19.458Z,99634.53
2022-08-02T00:56:31.635Z,99624.78
2022-08-02T00:56:49.671Z,99631.78
2022-08-02T00:57:02.153Z,99624.78
2022-08-02T00:57:14.179Z,99630.06
2022-08-02T00:57:26.156Z,99628.28
2022-08-02T00:57:38.083Z,99623.09
2022-08-02T00:57:50.203Z,99626.72
2022-08-02T00:58:02.576Z,99632.28
2022-08-02T00:58:14.540Z,99632.28
2022-08-02T00:58:27.263Z,99631.56
2022-08-02T00:58:39.248Z,99634.09
2022-08-02T00:58:51.209Z,99632.28
2022-08-02T00:59:04.491Z,99628.91
2022-08-02T00:59:16.446Z,99635.88
2022-08-02T00:59:28.422Z,99631.69
2022-08-02T00:59:41.985Z,99631.69
2022-08-02T00:59:53.999Z,99635.06
2022-08-02T01:00:06.695Z,99633.25
2022-08-02T01:00:19.249Z,99637.59
2022-08-02T01:00:31.327Z,99639.25
2022-08-02T01:00:43.488Z,99635.66
2022-08-02T01:00:57.537Z,99630.34
2022-08-02T01:01:09.550Z,99636.47
2022-08-02T01:01:38.360Z,99633.72
2022-08-02T01:02:09.969Z,99632.00
2022-08-02T01:02:22.297Z,99630.94
2022-08-02T01:02:34.329Z,99635.13
2022-08-02T01:02:46.683Z,99634.03
2022-08-02T01:02:58.704Z,99641.84
2022-08-02T01:03:10.719Z,99640.88
2022-08-02T01:03:23.093Z,99639.91
2022-08-02T01:03:35.103Z,99639.91
2022-08-02T01:03:47.055Z,99641.84
2022-08-02T01:03:58.991Z,99641.84
2022-08-02T01:04:13.476Z,99638.22
2022-08-02T01:04:30.896Z,99640.63
2022-08-02T01:04:43.664Z,99637.00
2022-08-02T01:04:55.606Z,99638.81
2022-08-02T01:05:07.963Z,99638.38
2022-08-02T01:05:19.960Z,99638.03
2022-08-02T01:05:42.765Z,99644.31
2022-08-02T01:06:11.591Z,99639.16
2022-08-02T01:06:23.865Z,99638.09
2022-08-02T01:06:37.142Z,99642.41
2022-08-02T01:06:49.093Z,99638.81
2022-08-02T01:07:13.035Z,99641.47
2022-08-02T01:07:26.604Z,99637.09
2022-08-02T01:07:38.791Z,99639.75
2022-08-02T01:07:50.832Z,99643.13
2022-08-02T01:08:03.162Z,99639.75
2022-08-02T01:08:15.203Z,99639.75
2022-08-02T01:08:29.669Z,99639.75
2022-08-02T01:08:44.435Z,99647.72
2022-08-02T01:08:56.541Z,99641.47
2022-08-02T01:09:09.225Z,99650.34
2022-08-02T01:09:21.446Z,99642.41
2022-08-02T01:09:33.415Z,99647.72
2022-08-02T01:09:45.791Z,99645.06
2022-08-02T01:09:58.102Z,99644.22
2022-08-02T01:10:10.501Z,99646.03
2022-08-02T01:10:22.519Z,99648.69
2022-08-02T01:10:34.461Z,99645.06
2022-08-02T01:10:46.482Z,99645.06
2022-08-02T01:10:58.568Z,99644.94
2022-08-02T01:11:10.522Z,99642.41
2022-08-02T01:11:22.448Z,99645.06
2022-08-02T01:11:35.858Z,99641.47
2022-08-02T01:11:47.798Z,99643.00
2022-08-02T01:12:02.558Z,99645.66
2022-08-02T01:12:15.200Z,99645.41
2022-08-02T01:12:27.811Z,99643.59
2022-08-02T01:12:39.783Z,99638.41
2022-08-02T01:12:51.779Z,99649.84
2022-08-02T01:13:03.737Z,99646.25
2022-08-02T01:13:16.371Z,99647.19
2022-08-02T01:13:28.584Z,99645.41
2022-08-02T01:13:40.780Z,99643.72
2022-08-02T01:13:53.045Z,99644.53
2022-08-02T01:14:08.362Z,99646.47
2022-08-02T01:14:22.822Z,99645.66
2022-08-02T01:14:34.897Z,99644.53
2022-08-02T01:14:50.074Z,99645.25
2022-08-02T01:15:09.750Z,99646.97
2022-08-02T01:15:22.112Z,99644.31
2022-08-02T01:15:55.218Z,99644.31
2022-08-02T01:16:14.844Z,99647.19
2022-08-02T01:16:32.062Z,99644.81
2022-08-02T01:16:52.699Z,99650.16
2022-08-02T01:17:16.179Z,99651.13
2022-08-02T01:17:52.914Z,99653.56
2022-08-02T01:18:17.503Z,99646.25
2022-08-02T01:18:43.575Z,99650.44
2022-08-02T01:19:01.295Z,99652.97
2022-08-02T01:19:50.709Z,99655.50
2022-08-02T01:20:05.658Z,99650.44
2022-08-02T01:20:55.030Z,99651.06
2022-08-02T01:21:24.851Z,99653.84
2022-08-02T01:22:02.667Z,99655.78
2022-08-02T01:22:17.461Z,99652.91
2022-08-02T01:23:06.809Z,99656.63
2022-08-02T01:23:31.388Z,99654.31
2022-08-02T01:24:11.763Z,99659.88
2022-08-02T01:24:50.389Z,99662.50
2022-08-02T01:25:19.982Z,99657.13
2022-08-02T01:25:43.589Z,99664.56
2022-08-02T01:26:32.883Z,99663.25
2022-08-02T01:26:54.965Z,99660.16
2022-08-02T01:27:48.151Z,99659.88
2022-08-02T01:28:17.199Z,99665.22
2022-08-02T01:28:46.014Z,99667.84
2022-08-02T01:29:08.545Z,99666.91
2022-08-02T01:29:34.485Z,99667.63
2022-08-02T01:29:51.451Z,99665.94
2022-08-02T01:30:04.459Z,99663.16
2022-08-02T01:30:17.919Z,99662.94
2022-08-02T01:30:32.022Z,99663.66
2022-08-02T01:30:47.896Z,99666.19
2022-08-02T01:31:12.624Z,99664.88
2022-08-02T01:31:47.386Z,99673.53
2022-08-02T01:32:03.659Z,99664.50
2022-08-02T01:32:19.936Z,99663.28
2022-08-02T01:32:37.500Z,99664.50
2022-08-02T01:32:55.649Z,99669.06
2022-08-02T01:33:09.915Z,99666.06
2022-08-02T01:33:25.773Z,99664.97
2022-08-02T01:33:44.734Z,99661.25
2022-08-02T01:34:06.164Z,99669.78
2022-08-02T01:34:24.490Z,99662.81
2022-08-02T01:34:46.042Z,99667.84
2022-08-02T01:35:11.377Z,99666.66
2022-08-02T01:35:30.466Z,99668.84
2022-08-02T01:36:04.713Z,99666.31
2022-08-02T01:36:19.081Z,99664.50
2022-08-02T01:36:38.011Z,99663.28
2022-08-02T01:36:57.574Z,99668.34
2022-08-02T01:37:29.638Z,99668.09
2022-08-02T01:37:54.898Z,99667.84
2022-08-02T01:38:14.735Z,99670.25
2022-08-02T01:38:38.009Z,99674.72
2022-08-02T01:38:53.291Z,99671.22
2022-08-02T01:39:09.039Z,99667.84
2022-08-02T01:39:26.332Z,99673.16
2022-08-02T01:39:42.510Z,99670.50
2022-08-02T01:40:20.828Z,99671.94
2022-08-02T01:40:36.269Z,99673.66
2022-08-02T01:40:50.720Z,99668.84
2022-08-02T01:41:04.515Z,99673.88
2022-08-02T01:41:26.497Z,99675.56
2022-08-02T01:41:39.338Z,99669.31
2022-08-02T01:41:57.340Z,99673.88
2022-08-02T01:42:11.782Z,99685.28
2022-08-02T01:42:26.985Z,99671.13
2022-08-02T01:42:47.255Z,99675.56
2022-08-02T01:43:01.576Z,99679.28
2022-08-02T01:43:14.703Z,99672.06
2022-08-02T01:43:29.846Z,99673.16
2022-08-02T01:43:43.942Z,99682.78
2022-08-02T01:43:59.326Z,99671.50
2022-08-02T01:44:13.387Z,99677.72
2022-08-02T01:44:28.664Z,99683.28
2022-08-02T01:44:43.495Z,99677.13
2022-08-02T01:44:57.123Z,99681.22
2022-08-02T01:45:11.860Z,99682.91
2022-08-02T01:45:26.747Z,99681.09
2022-08-02T01:45:42.096Z,99678.56
2022-08-02T01:45:55.523Z,99680.13
2022-08-02T01:46:09.373Z,99678.47
2022-08-02T01:46:22.725Z,99674.25
2022-08-02T01:46:37.971Z,99677.97
2022-08-02T01:46:51.938Z,99679.41
2022-08-02T01:47:10.422Z,99675.81
2022-08-02T01:47:31.242Z,99688.06
2022-08-02T01:47:45.000Z,99684.47
2022-08-02T01:47:59.440Z,99681.09
2022-08-02T01:48:14.302Z,99681.47
2022-08-02T01:48:28.584Z,99688.94
2022-08-02T01:48:42.771Z,99686.03
2022-08-02T01:48:57.190Z,99684.00
2022-08-02T01:49:14.989Z,99686.63
2022-08-02T01:49:29.837Z,99695.41
2022-08-02T01:49:43.315Z,99687.59
2022-08-02T01:49:58.550Z,99685.53
2022-08-02T01:50:14.072Z,99685.44
2022-08-02T01:50:33.458Z,99678.22
2022-08-02T01:50:48.773Z,99685.81
2022-08-02T01:51:02.810Z,99680.84
2022-08-02T01:51:17.457Z,99684.22
2022-08-02T01:51:50.545Z,99684.22
2022-08-02T01:52:22.518Z,99690.00
2022-08-02T01:52:40.496Z,99692.16
2022-08-02T01:53:08.731Z,99687.00
2022-08-02T01:53:21.703Z,99687.59
2022-08-02T01:53:35.603Z,99694.56
2022-08-02T01:53:50.885Z,99688.56
2022-08-02T01:54:03.512Z,99685.91
2022-08-02T01:54:18.455Z,99689.28
2022-08-02T01:54:33.419Z,99692.88
2022-08-02T01:54:46.616Z,99684.00
2022-08-02T01:55:18.879Z,99690.94
2022-08-02T01:55:57.585Z,99688.81
2022-08-02T01:56:13.065Z,99686.03
2022-08-02T01:56:25.177Z,99678.94
2022-08-02T01:56:38.002Z,99688.53
2022-08-02T01:56:51.910Z,99684.94
2022-08-02T01:57:09.953Z,99684.22
2022-08-02T01:57:24.507Z,99683.25
2022-08-02T01:57:48.837Z,99682.69
2022-08-02T01:58:05.716Z,99685.19
2022-08-02T01:58:20.247Z,99689.63
2022-08-02T01:58:36.331Z,99694.91
2022-08-02T01:58:49.486Z,99687.81
2022-08-02T01:59:04.367Z,99685.31
2022-08-02T01:59:20.701Z,99690.47
2022-08-02T01:59:33.527Z,99688.81
2022-08-02T01:59:47.009Z,99695.03
2022-08-02T02:00:01.515Z,99698.00
2022-08-02T02:00:15.559Z,99691.66
2022-08-02T02:00:31.791Z,99689.44
2022-08-02T02:00:46.120Z,99693.75
2022-08-02T02:00:59.985Z,99688.97
2022-08-02T02:01:18.311Z,99690.41
2022-08-02T02:01:32.640Z,99687.31
2022-08-02T02:01:48.169Z,99695.97
2022-08-02T02:02:01.543Z,99689.47
2022-08-02T02:02:16.304Z,99685.13
2022-08-02T02:02:31.669Z,99697.63
2022-08-02T02:02:47.622Z,99695.44
2022-08-02T02:03:02.632Z,99688.34
2022-08-02T02:03:20.507Z,99687.06
2022-08-02T02:03:34.702Z,99686.56
2022-08-02T02:03:48.627Z,99691.66
2022-08-02T02:04:01.564Z,99688.50
2022-08-02T02:04:15.599Z,99695.72
2022-08-02T02:04:30.723Z,99690.19
2022-08-02T02:04:45.023Z,99688.28
2022-08-02T02:04:59.674Z,99686.13
2022-08-02T02:05:14.545Z,99694.78
2022-08-02T02:05:29.415Z,99686.84
2022-08-02T02:05:42.249Z,99691.41
2022-08-02T02:05:57.337Z,99695.22
2022-08-02T02:06:11.282Z,99692.69
2022-08-02T02:06:24.086Z,99689.00
2022-08-02T02:06:40.648Z,99693.97
2022-08-02T02:06:53.136Z,99691.19
2022-08-02T02:07:07.105Z,99691.78
2022-08-02T02:07:21.178Z,99689.84
2022-08-02T02:07:36.187Z,99696.72
2022-08-02T02:07:51.200Z,99698.28
2022-08-02T02:08:05.524Z,99699.84
2022-08-02T02:08:27.859Z,99695.28
2022-08-02T02:08:43.489Z,99690.25
2022-08-02T02:08:56.822Z,99696.97
2022-08-02T02:09:09.370Z,99687.84
2022-08-02T02:09:25.126Z,99694.56
2022-08-02T02:09:50.817Z,99695.50
2022-08-02T02:10:05.765Z,99696.25
2022-08-02T02:10:24.884Z,99695.19
2022-08-02T02:10:39.256Z,99696.84
2022-08-02T02:10:52.796Z,99690.47
2022-08-02T02:12:09.853Z,99688.78
2022-08-02T02:12:10.164Z,99690.47
2022-08-02T02:12:14.801Z,99693.25
2022-08-02T02:12:27.382Z,99687.97
2022-08-02T02:12:41.023Z,99686.25
2022-08-02T02:12:53.695Z,99688.06
2022-08-02T02:13:09.510Z,99687.09
2022-08-02T02:13:33.664Z,99683.38
2022-08-02T02:13:48.822Z,99682.31
2022-08-02T02:14:02.897Z,99691.94
2022-08-02T02:14:16.757Z,99684.22
2022-08-02T02:14:30.140Z,99693.72
2022-08-02T02:14:51.775Z,99683.84
2022-08-02T02:15:05.717Z,99689.03
2022-08-02T02:15:18.652Z,99688.09
2022-08-02T02:15:32.555Z,99688.09
2022-08-02T02:15:47.714Z,99681.94
2022-08-02T02:16:03.993Z,99683.84
2022-08-02T02:16:16.351Z,99680.25
2022-08-02T02:16:29.086Z,99684.56
2022-08-02T02:16:43.669Z,99686.38
2022-08-02T02:16:58.621Z,99689.03
2022-08-02T02:17:53.003Z,99680.88
2022-08-02T02:18:11.498Z,99681.09
2022-08-02T02:18:25.670Z,99680.59
2022-08-02T02:18:41.860Z,99676.16
2022-08-02T02:18:54.981Z,99678.06
2022-08-02T02:19:09.146Z,99678.34
2022-08-02T02:19:23.824Z,99678.34
2022-08-02T02:19:37.234Z,99680.88
2022-08-02T02:19:51.308Z,99677.97
2022-08-02T02:20:04.264Z,99679.50
2022-08-02T02:20:18.842Z,99676.16
2022-08-02T02:20:30.994Z,99676.16
2022-08-02T02:20:43.489Z,99676.75
2022-08-02T02:20:56.830Z,99674.94
2022-08-02T02:21:08.756Z,99678.44
2022-08-02T02:21:21.514Z,99673.88
2022-08-02T02:21:35.142Z,99672.28
2022-08-02T02:21:47.893Z,99675.66
2022-08-02T02:22:00.104Z,99674.81
2022-08-02T02:22:13.764Z,99675.09
2022-08-02T02:22:26.093Z,99667.84
2022-08-02T02:22:38.795Z,99667.00
2022-08-02T02:22:51.979Z,99666.75
2022-08-02T02:23:04.266Z,99670.13
2022-08-02T02:23:17.321Z,99665.66
2022-08-02T02:23:35.535Z,99666.66
2022-08-02T02:23:47.910Z,99673.72
2022-08-02T02:24:02.527Z,99664.72
2022-08-02T02:24:14.939Z,99670.97
2022-08-02T02:24:27.624Z,99671.94
2022-08-02T02:24:40.736Z,99670.13
2022-08-02T02:24:53.000Z,99670.25
2022-08-02T02:25:12.088Z,99672.16
2022-08-02T02:25:35.633Z,99668.56
2022-08-02T02:25:49.148Z,99667.47
2022-08-02T02:26:05.135Z,99667.38
2022-08-02T02:26:29.503Z,99660.16
2022-08-02T02:26:52.024Z,99656.78
2022-08-02T02:27:08.998Z,99657.63
2022-08-02T02:27:24.663Z,99662.19
2022-08-02T02:27:39.025Z,99664.00
2022-08-02T02:28:05.710Z,99658.72
2022-08-02T02:28:30.170Z,99665.66
2022-08-02T02:28:46.760Z,99660.16
2022-08-02T02:29:03.095Z,99661.81
2022-08-02T02:29:18.577Z,99658.22
2022-08-02T02:29:32.728Z,99661.56
2022-08-02T02:29:47.164Z,99663.25
2022-08-02T02:30:00.151Z,99660.47
2022-08-02T02:30:12.918Z,99665.66
2022-08-02T02:30:28.210Z,99655.91
2022-08-02T02:30:45.668Z,99659.38
2022-08-02T02:31:15.738Z,99662.03
2022-08-02T02:31:31.448Z,99663.97
2022-08-02T02:31:47.126Z,99663.00
2022-08-02T02:32:01.196Z,99654.25
2022-08-02T02:32:15.662Z,99661.19
2022-08-02T02:32:28.402Z,99659.38
2022-08-02T02:32:42.196Z,99655.06
2022-08-02T02:32:58.292Z,99658.81
2022-08-02T02:33:13.617Z,99657.13
2022-08-02T02:33:29.314Z,99658.81
2022-08-02T02:33:50.472Z,99653.75
2022-08-02T02:34:10.287Z,99657.63
2022-08-02T02:34:29.056Z,99655.91
2022-08-02T02:34:46.297Z,99654.13
2022-08-02T02:35:00.290Z,99662.06
2022-08-02T02:35:17.096Z,99663.03
2022-08-02T02:35:32.048Z,99660.38
2022-08-02T02:35:47.733Z,99662.06
2022-08-02T02:36:01.965Z,99663.75
2022-08-02T02:36:16.514Z,99656.63
2022-08-02T02:36:29.857Z,99661.81
2022-08-02T02:36:48.001Z,99656.50
2022-08-02T02:37:04.223Z,99649.56
2022-08-02T02:37:27.788Z,99654.84
2022-08-02T02:37:41.211Z,99650.78
2022-08-02T02:37:56.190Z,99653.41
2022-08-02T02:38:13.386Z,99658.72
2022-08-02T02:38:28.612Z,99653.41
2022-08-02T02:38:42.265Z,99649.78
2022-08-02T02:38:57.141Z,99657.84
2022-08-02T02:39:13.736Z,99650.06
2022-08-02T02:39:28.497Z,99657.28
2022-08-02T02:39:42.112Z,99658.34
2022-08-02T02:39:56.311Z,99657.50
2022-08-02T02:40:09.103Z,99658.34
2022-08-02T02:40:23.877Z,99662.78
2022-08-02T02:40:37.845Z,99657.63
2022-08-02T02:40:50.497Z,99652.22
2022-08-02T02:41:05.259Z,99654.97
2022-08-02T02:41:18.957Z,99657.03
2022-08-02T02:41:30.979Z,99651.88
2022-08-02T02:41:44.300Z,99653.53
2022-08-02T02:42:01.372Z,99652.69
2022-08-02T02:42:16.605Z,99658.72
2022-08-02T02:42:31.547Z,99657.03
2022-08-02T02:42:49.276Z,99657.16
2022-08-02T02:43:01.986Z,99658.25
2022-08-02T02:43:15.736Z,99654.03
2022-08-02T02:43:31.037Z,99654.88
2022-08-02T02:43:44.501Z,99657.66
2022-08-02T02:44:00.235Z,99656.81
2022-08-02T02:44:16.652Z,99650.78
2022-08-02T02:44:30.771Z,99660.41
2022-08-02T02:44:44.368Z,99652.59
2022-08-02T02:44:58.339Z,99650.91
2022-08-02T02:45:11.200Z,99651.75
2022-08-02T02:45:24.277Z,99653.91
2022-08-02T02:45:37.996Z,99660.41
2022-08-02T02:45:51.039Z,99648.88
2022-08-02T02:46:05.177Z,99655.38
2022-08-02T02:46:18.548Z,99650.81
2022-08-02T02:46:32.099Z,99657.75
2022-08-02T02:46:49.449Z,99657.53
2022-08-02T02:47:01.955Z,99653.91
2022-08-02T02:47:16.819Z,99650.31
2022-08-02T02:47:40.779Z,99652.97
2022-08-02T02:47:55.339Z,99658.13
2022-08-02T02:48:09.321Z,99646.47
2022-08-02T02:48:22.283Z,99654.28
2022-08-02T02:48:36.120Z,99648.13
2022-08-02T02:48:52.043Z,99651.63
2022-08-02T02:49:04.381Z,99655.13
2022-08-02T02:49:18.996Z,99656.06
2022-08-02T02:49:34.127Z,99648.88
2022-08-02T02:49:50.351Z,99657.28
2022-08-02T02:50:02.871Z,99650.31
2022-08-02T02:50:16.977Z,99651.97
2022-08-02T02:50:30.445Z,99653.91
2022-08-02T02:50:43.547Z,99655.59
2022-08-02T02:50:56.190Z,99650.31
2022-08-02T02:51:14.279Z,99662.72
2022-08-02T02:51:27.031Z,99661.59
2022-08-02T02:51:44.202Z,99655.59
2022-08-02T02:51:57.621Z,99659.44
2022-08-02T02:52:11.683Z,99663.06
2022-08-02T02:52:24.677Z,99656.56
2022-08-02T02:52:38.531Z,99656.56
2022-08-02T02:52:51.561Z,99658.25
2022-08-02T02:53:04.665Z,99661.59
2022-08-02T02:53:18.891Z,99654.41
2022-08-02T02:54:30.195Z,99658.97
2022-08-02T02:54:32.848Z,99663.53
2022-08-02T02:54:35.406Z,99659.09
2022-08-02T02:54:51.338Z,99663.53
2022-08-02T02:55:03.933Z,99666.31
2022-08-02T02:55:17.656Z,99670.75
2022-08-02T02:55:30.722Z,99670.75
2022-08-02T02:56:01.393Z,99661.16
2022-08-02T02:56:16.308Z,99663.06
2022-08-02T02:56:28.629Z,99669.31
2022-08-02T02:56:42.295Z,99656.34
2022-08-02T02:56:54.879Z,99664.50
2022-08-02T02:57:08.722Z,99664.75
2022-08-02T02:57:21.925Z,99664.97
2022-08-02T02:57:34.208Z,99665.97
2022-08-02T02:57:46.804Z,99658.22
2022-08-02T02:57:59.252Z,99660.84
2022-08-02T02:58:11.872Z,99662.66
2022-08-02T02:58:28.689Z,99665.44
2022-08-02T02:58:41.735Z,99660.13
2022-08-02T02:58:54.678Z,99660.13
2022-08-02T02:59:08.979Z,99657.75
2022-08-02T02:59:21.451Z,99666.50
2022-08-02T02:59:36.309Z,99663.97
2022-08-02T02:59:55.211Z,99662.53
2022-08-02T03:00:10.189Z,99664.56